createdAt,value
2022-11-25T00:07:11.587Z,8
2022-11-25T00:17:23.582Z,4
2022-11-25T00:27:22.346Z,4
2022-11-25T00:37:30.082Z,6
2022-11-25T00:47:36.608Z,3
2022-11-25T00:57:43.569Z,3
2022-11-25T01:07:47.347Z,3
2022-11-25T01:17:52.788Z,2
2022-11-25T01:27:58.351Z,3
2022-11-25T01:38:04.494Z,5
2022-11-25T01:48:08.979Z,4
2022-11-25T01:58:13.511Z,3
2022-11-25T02:08:19.661Z,5
2022-11-25T02:18:25.087Z,5
2022-11-25T02:28:30.049Z,6
2022-11-25T02:38:37.468Z,5
2022-11-25T02:49:07.723Z,5
2022-11-25T02:59:03.250Z,6
2022-11-25T03:09:08.877Z,4
2022-11-25T03:19:15.903Z,5
2022-11-25T03:29:22.221Z,4
2022-11-25T03:39:27.267Z,3
2022-11-25T03:49:33.999Z,3
2022-11-25T03:59:39.804Z,2
2022-11-25T04:09:44.625Z,2
2022-11-25T04:19:51.571Z,4
2022-11-25T04:29:59.531Z,2
2022-11-25T04:40:05.240Z,3
2022-11-25T04:50:13.441Z,4
2022-11-25T05:00:21.870Z,7
2022-11-25T05:10:29.200Z,7
2022-11-25T05:20:34.871Z,5
2022-11-25T05:30:43.304Z,3
2022-11-25T05:40:46.148Z,8
2022-11-25T05:50:51.358Z,4
2022-11-25T06:01:02.365Z,4
2022-11-25T06:11:03.045Z,5
2022-11-25T06:21:08.528Z,3
2022-11-25T06:31:13.181Z,4
2022-11-25T06:41:20.611Z,4
2022-11-25T06:51:25.026Z,4
2022-11-25T07:01:30.610Z,4
2022-11-25T07:11:35.313Z,2
2022-11-25T07:21:41.827Z,3
2022-11-25T07:32:46.863Z,4
2022-11-25T07:42:47.737Z,6
2022-11-25T07:52:53.222Z,3
2022-11-25T08:03:01.169Z,2
2022-11-25T08:13:08.225Z,5
2022-11-25T08:23:15.323Z,4
2022-11-25T08:33:20.256Z,2
2022-11-25T08:43:29.319Z,2
2022-11-25T08:53:30.789Z,2
2022-11-25T09:03:36.017Z,2
2022-11-25T09:13:40.628Z,3
2022-11-25T09:23:45.368Z,2
2022-11-25T09:33:50.811Z,2
2022-11-25T09:43:56.189Z,3
2022-11-25T09:54:01.245Z,4
2022-11-25T10:04:07.674Z,5
2022-11-25T10:14:12.697Z,4
2022-11-25T10:24:18.824Z,3
2022-11-25T10:34:24.441Z,4
2022-11-25T10:44:30.198Z,2
2022-11-25T10:54:36.165Z,4
2022-11-25T11:04:43.949Z,5
2022-11-25T11:14:48.976Z,2
2022-11-25T11:24:55.348Z,4
2022-11-25T11:34:59.766Z,7
2022-11-25T11:45:05.670Z,6
2022-11-25T11:55:12.213Z,5
2022-11-25T12:05:14.821Z,7
2022-11-25T12:15:20.556Z,4
2022-11-25T12:25:27.508Z,5
2022-11-25T12:35:33.875Z,3
2022-11-25T12:45:40.641Z,3
2022-11-25T12:55:45.487Z,4
2022-11-25T13:06:22.388Z,9
2022-11-25T13:16:20.198Z,2
2022-11-25T13:26:21.812Z,3
2022-11-25T13:36:28.858Z,3
2022-11-25T13:46:36.270Z,6
2022-11-25T13:56:38.791Z,4
2022-11-25T14:06:44.646Z,5
2022-11-25T14:16:54.228Z,4
2022-11-25T14:27:34.796Z,7
2022-11-25T14:37:27.680Z,4
2022-11-25T14:47:35.940Z,6
2022-11-25T14:57:41.086Z,12
2022-11-25T15:07:45.866Z,14
2022-11-25T15:17:52.671Z,6
2022-11-25T15:27:57.650Z,15
2022-11-25T15:38:04.514Z,16
2022-11-25T15:48:09.807Z,18
2022-11-25T15:58:17.344Z,12
2022-11-25T16:08:24.109Z,12
2022-11-25T16:19:03.459Z,8
2022-11-25T16:28:57.582Z,8
2022-11-25T16:39:01.591Z,10
2022-11-25T16:49:07.076Z,8
2022-11-25T16:59:12.728Z,6
2022-11-25T17:09:20.421Z,7
2022-11-25T17:19:28.393Z,5
2022-11-25T17:29:32.674Z,6
2022-11-25T17:39:39.633Z,5
2022-11-25T17:49:45.857Z,4
2022-11-25T17:59:51.342Z,3
2022-11-25T18:09:56.876Z,5
2022-11-25T18:20:02.485Z,5
2022-11-25T18:30:08.184Z,3
2022-11-25T18:40:13.383Z,5
2022-11-25T18:50:25.783Z,3
2022-11-25T19:01:02.559Z,3
2022-11-25T19:11:01.220Z,3
2022-11-25T19:21:01.878Z,4
2022-11-25T19:31:05.997Z,4
2022-11-25T19:41:20.583Z,7
2022-11-25T19:51:18.164Z,4
2022-11-25T20:01:24.233Z,9
2022-11-25T20:11:29.933Z,10
2022-11-25T20:21:35.198Z,6
2022-11-25T20:31:40.535Z,5
2022-11-25T20:41:46.164Z,6
2022-11-25T20:51:52.022Z,6
2022-11-25T21:01:56.907Z,10
2022-11-25T21:12:00.752Z,10
2022-11-25T21:22:07.691Z,12
2022-11-25T21:32:14.615Z,11
2022-11-25T21:42:19.279Z,10
2022-11-25T21:52:24.565Z,11
2022-11-25T22:02:29.648Z,17
2022-11-25T22:12:40.935Z,11
2022-11-25T22:22:42.315Z,10
2022-11-25T22:32:53.919Z,11
2022-11-25T22:42:52.424Z,11
2022-11-25T22:53:01.234Z,6
2022-11-25T23:03:07.477Z,7
2022-11-25T23:13:13.322Z,9
2022-11-25T23:23:19.128Z,7
2022-11-25T23:33:25.620Z,7
2022-11-25T23:43:32.484Z,6
2022-11-25T23:53:36.672Z,8
